Fremont, Wisconsin
Current Conditions -  °F | °C
As of 10:15 PM on Wednesday 17 Dec 2014 (Local Time) from KPCZ Reporting Station
Overcast Overcast  
Wind Chill: 16°   Ceiling: 2000
Heat Index: 24°   Visibility: 10mi
Dew Point: 17°   Wind: 7mph
Humidity: 75%   Direction: 260°W
Pressure: 30.25"   Gusts: NA
Location:  44.26°N, 88.86°W
Report Text: KPCZ 180415Z AUTO 26006KT 10SM BKN020 OVC028 M04/M08 A3025 RMK AO2 T10431082
Loading
Personal Weather Stations






























Interactive Weather Map New forecast layout! Learn more

10-Day Weather Forecast

Advertisements
Track Severe Weather on mobile